createdAt,value
2018-09-27T00:01:02.120Z,98080.64
2018-09-27T00:03:29.366Z,98080.25
2018-09-27T00:05:56.580Z,98084.38
2018-09-27T00:08:23.833Z,98081.04
2018-09-27T00:10:51.136Z,98078.20
2018-09-27T00:13:18.370Z,98071.36
2018-09-27T00:15:45.600Z,98074.74
2018-09-27T00:18:12.913Z,98073.91
2018-09-27T00:20:40.079Z,98075.09
2018-09-27T00:23:07.323Z,98077.49
2018-09-27T00:25:34.509Z,98075.25
2018-09-27T00:28:01.700Z,98071.27
2018-09-27T00:30:28.934Z,98070.80
2018-09-27T00:32:56.295Z,98064.42
2018-09-27T00:35:23.495Z,98072.10
2018-09-27T00:37:50.784Z,98061.98
2018-09-27T00:40:17.988Z,98064.27
2018-09-27T00:42:45.267Z,98065.60
2018-09-27T00:45:12.549Z,98059.82
2018-09-27T00:47:39.774Z,98060.72
2018-09-27T00:50:07.319Z,98054.55
2018-09-27T00:52:34.574Z,98063.16
2018-09-27T00:55:01.886Z,98057.17
2018-09-27T00:57:29.177Z,98059.77
2018-09-27T00:59:56.377Z,98063.23
2018-09-27T01:02:23.600Z,98060.02
2018-09-27T01:04:50.815Z,98063.63
2018-09-27T01:07:18.040Z,98062.12
2018-09-27T01:09:45.296Z,98064.13
2018-09-27T01:12:12.534Z,98061.00
2018-09-27T01:14:39.747Z,98059.30
2018-09-27T01:17:06.993Z,98059.11
2018-09-27T01:19:34.227Z,98059.91
2018-09-27T01:22:01.474Z,98060.64
2018-09-27T01:24:28.626Z,98052.31
2018-09-27T01:26:55.861Z,98063.01
2018-09-27T01:29:23.078Z,98048.84
2018-09-27T01:31:50.355Z,98049.82
2018-09-27T01:34:17.531Z,98047.63
2018-09-27T01:36:44.765Z,98035.66
2018-09-27T01:39:12.055Z,98036.70
2018-09-27T01:41:39.345Z,98035.98
2018-09-27T01:44:06.541Z,98034.75
2018-09-27T01:46:33.823Z,98033.28
2018-09-27T01:49:01.078Z,98039.23
2018-09-27T01:51:28.317Z,98038.52
2018-09-27T01:53:55.577Z,98038.44
2018-09-27T01:56:22.854Z,98042.33
2018-09-27T01:58:50.107Z,98042.09
2018-09-27T02:01:17.367Z,98040.58
2018-09-27T02:03:44.652Z,98040.43
2018-09-27T02:06:11.909Z,98035.06
2018-09-27T02:08:39.171Z,98028.40
2018-09-27T02:11:06.446Z,98022.59
2018-09-27T02:13:33.736Z,98024.75
2018-09-27T02:16:01.026Z,98016.97
2018-09-27T02:18:28.212Z,98021.05
2018-09-27T02:20:55.493Z,98017.69
2018-09-27T02:23:22.715Z,98013.30
2018-09-27T02:25:49.993Z,98009.81
2018-09-27T02:28:17.204Z,98014.41
2018-09-27T02:30:44.525Z,98012.40
2018-09-27T02:33:11.758Z,98006.02
2018-09-27T02:35:39.033Z,98010.70
2018-09-27T02:38:06.319Z,98003.03
2018-09-27T02:40:33.591Z,98003.53
2018-09-27T02:43:00.826Z,98003.11
2018-09-27T02:45:28.074Z,97998.81
2018-09-27T02:47:55.372Z,97992.84
2018-09-27T02:50:22.612Z,97988.30
2018-09-27T02:52:49.941Z,97986.50
2018-09-27T02:55:17.196Z,97985.84
2018-09-27T02:57:44.520Z,97984.87
2018-09-27T03:00:11.801Z,97985.41
2018-09-27T03:02:39.078Z,97980.08
2018-09-27T03:05:06.362Z,97975.39
2018-09-27T03:07:33.598Z,97974.56
2018-09-27T03:10:00.785Z,97971.18
2018-09-27T03:12:28.060Z,97966.15
2018-09-27T03:14:55.281Z,97969.14
2018-09-27T03:17:22.513Z,97965.87
2018-09-27T03:19:49.788Z,97968.14
2018-09-27T03:22:17.148Z,97963.56
2018-09-27T03:24:44.384Z,97962.66
2018-09-27T03:27:11.672Z,97960.11
2018-09-27T03:29:38.956Z,97963.56
2018-09-27T03:32:06.458Z,97959.47
2018-09-27T03:34:33.763Z,97960.47
2018-09-27T03:37:00.984Z,97960.47
2018-09-27T03:39:28.134Z,97962.73
2018-09-27T03:41:55.402Z,97962.30
2018-09-27T03:44:22.623Z,97957.32
2018-09-27T03:46:49.980Z,97953.44
2018-09-27T03:49:17.212Z,97951.44
2018-09-27T03:51:44.552Z,97943.21
2018-09-27T03:54:11.801Z,97940.98
2018-09-27T03:56:39.104Z,97937.50
2018-09-27T03:59:06.364Z,97944.01
2018-09-27T04:01:33.526Z,97944.91
2018-09-27T04:04:00.825Z,97941.25
2018-09-27T04:06:28.044Z,97943.91
2018-09-27T04:08:55.288Z,97939.33
2018-09-27T04:11:22.532Z,97942.41
2018-09-27T04:13:49.813Z,97945.10
2018-09-27T04:16:17.055Z,97937.43
2018-09-27T04:18:44.580Z,97935.70
2018-09-27T04:21:11.794Z,97928.09
2018-09-27T04:23:39.025Z,97926.41
2018-09-27T04:26:06.273Z,97919.80
2018-09-27T04:28:33.494Z,97909.38
2018-09-27T04:31:00.774Z,97912.33
2018-09-27T04:33:28.014Z,97912.30
2018-09-27T04:35:55.376Z,97915.22
2018-09-27T04:38:22.595Z,97909.70
2018-09-27T04:40:49.861Z,97922.02
2018-09-27T04:43:17.131Z,97919.39
2018-09-27T04:45:44.370Z,97926.17
2018-09-27T04:48:11.554Z,97932.64
2018-09-27T04:50:38.807Z,97924.78
2018-09-27T04:53:06.029Z,97925.67
2018-09-27T04:55:33.253Z,97929.88
2018-09-27T04:58:00.667Z,97924.00
2018-09-27T05:00:27.914Z,97920.88
2018-09-27T05:02:55.236Z,97918.36
2018-09-27T05:05:22.422Z,97914.84
2018-09-27T05:07:49.711Z,97914.75
2018-09-27T05:10:16.900Z,97924.54
2018-09-27T05:12:44.135Z,97925.53
2018-09-27T05:15:11.333Z,97922.98
2018-09-27T05:17:38.572Z,97925.76
2018-09-27T05:20:05.767Z,97917.95
2018-09-27T05:22:32.923Z,97920.18
2018-09-27T05:25:00.131Z,97922.34
2018-09-27T05:27:27.469Z,97929.95
2018-09-27T05:29:54.683Z,97926.86
2018-09-27T05:32:21.986Z,97925.44
2018-09-27T05:34:49.198Z,97922.28
2018-09-27T05:37:16.390Z,97915.58
2018-09-27T05:39:43.629Z,97914.92
2018-09-27T05:42:10.836Z,97916.05
2018-09-27T05:44:38.049Z,97916.61
2018-09-27T05:47:05.300Z,97919.36
2018-09-27T05:49:32.585Z,97914.92
2018-09-27T05:51:59.787Z,97907.81
2018-09-27T05:54:27.002Z,97901.05
2018-09-27T05:56:54.298Z,97895.66
2018-09-27T05:59:21.497Z,97901.94
2018-09-27T06:01:48.754Z,97905.87
2018-09-27T06:04:15.974Z,97909.09
2018-09-27T06:06:43.437Z,97909.35
2018-09-27T06:09:11.836Z,97907.02
2018-09-27T06:11:39.175Z,97903.96
2018-09-27T06:14:06.886Z,97904.47
2018-09-27T06:16:34.576Z,97903.28
2018-09-27T06:19:01.752Z,97902.89
2018-09-27T06:21:29.091Z,97903.17
2018-09-27T06:23:56.328Z,97901.98
2018-09-27T06:26:23.531Z,97896.98
2018-09-27T06:28:50.904Z,97893.91
2018-09-27T06:31:18.124Z,97899.25
2018-09-27T06:33:45.403Z,97897.89
2018-09-27T06:36:12.739Z,97900.38
2018-09-27T06:38:40.044Z,97904.27
2018-09-27T06:41:07.259Z,97903.72
2018-09-27T06:43:34.492Z,97906.31
2018-09-27T06:46:01.722Z,97908.98
2018-09-27T06:48:29.035Z,97904.45
2018-09-27T06:50:56.237Z,97902.05
2018-09-27T06:53:23.513Z,97898.48
2018-09-27T06:55:50.780Z,97900.43
2018-09-27T06:58:17.928Z,97878.78
2018-09-27T07:00:45.242Z,97905.78
2018-09-27T07:03:12.383Z,97900.80
2018-09-27T07:05:39.685Z,97904.10
2018-09-27T07:08:06.934Z,97897.55
2018-09-27T07:10:34.184Z,97907.22
2018-09-27T07:13:01.388Z,97904.47
2018-09-27T07:15:28.681Z,97904.05
2018-09-27T07:17:55.950Z,97901.35
2018-09-27T07:20:23.194Z,97898.80
2018-09-27T07:22:50.836Z,97897.80
2018-09-27T07:25:18.153Z,97890.17
2018-09-27T07:27:45.270Z,97889.14
2018-09-27T07:30:12.513Z,97888.33
2018-09-27T07:32:39.814Z,97888.45
2018-09-27T07:35:06.960Z,97887.35
2018-09-27T07:37:34.276Z,97884.47
2018-09-27T07:40:01.454Z,97887.94
2018-09-27T07:42:28.668Z,97875.34
2018-09-27T07:44:55.920Z,97874.55
2018-09-27T07:47:23.148Z,97867.22
2018-09-27T07:49:50.355Z,97869.06
2018-09-27T07:52:17.742Z,97864.97
2018-09-27T07:54:44.993Z,97862.73
2018-09-27T07:57:12.160Z,97861.29
2018-09-27T07:59:39.404Z,97864.52
2018-09-27T08:02:06.678Z,97864.22
2018-09-27T08:04:34.036Z,97857.08
2018-09-27T08:07:01.292Z,97859.11
2018-09-27T08:09:28.532Z,97859.19
2018-09-27T08:11:55.796Z,97856.16
2018-09-27T08:14:23.002Z,97860.03
2018-09-27T08:16:50.264Z,97857.11
2018-09-27T08:19:17.434Z,97854.13
2018-09-27T08:21:44.635Z,97847.62
2018-09-27T08:24:11.881Z,97848.20
2018-09-27T08:26:39.261Z,97847.84
2018-09-27T08:29:06.306Z,97844.64
2018-09-27T08:31:33.557Z,97844.19
2018-09-27T08:34:00.807Z,97850.02
2018-09-27T08:36:28.070Z,97843.76
2018-09-27T08:38:55.292Z,97843.94
2018-09-27T08:41:22.491Z,97846.69
2018-09-27T08:43:49.696Z,97839.75
2018-09-27T08:46:16.987Z,97835.95
2018-09-27T08:48:44.213Z,97840.47
2018-09-27T08:51:11.453Z,97834.39
2018-09-27T08:53:38.704Z,97837.89
2018-09-27T08:56:06.103Z,97836.77
2018-09-27T08:58:33.290Z,97835.70
2018-09-27T09:01:00.542Z,97833.00
2018-09-27T09:03:27.829Z,97826.30
2018-09-27T09:05:55.035Z,97823.75
2018-09-27T09:08:22.287Z,97823.66
2018-09-27T09:10:49.525Z,97819.75
2018-09-27T09:13:16.814Z,97816.95
2018-09-27T09:15:44.117Z,97810.50
2018-09-27T09:18:11.290Z,97808.07
2018-09-27T09:20:38.523Z,97804.36
2018-09-27T09:23:05.838Z,97802.11
2018-09-27T09:25:33.136Z,97792.73
2018-09-27T09:28:00.383Z,97793.75
2018-09-27T09:30:27.633Z,97791.06
2018-09-27T09:32:54.868Z,97789.22
2018-09-27T09:35:22.114Z,97784.57
2018-09-27T09:37:49.383Z,97785.38
2018-09-27T09:40:16.659Z,97780.73
2018-09-27T09:42:43.912Z,97788.22
2018-09-27T09:45:11.227Z,97776.36
2018-09-27T09:47:38.510Z,97781.39
2018-09-27T09:50:05.798Z,97776.72
2018-09-27T09:52:33.076Z,97774.85
2018-09-27T09:55:00.259Z,97776.37
2018-09-27T09:57:27.451Z,97774.36
2018-09-27T09:59:54.629Z,97770.17
2018-09-27T10:02:21.891Z,97765.10
2018-09-27T10:04:49.169Z,97762.80
2018-09-27T10:07:16.446Z,97760.14
2018-09-27T10:09:43.644Z,97752.83
2018-09-27T10:12:10.888Z,97746.28
2018-09-27T10:14:38.085Z,97752.45
2018-09-27T10:17:05.344Z,97751.34
2018-09-27T10:19:32.610Z,97740.23
2018-09-27T10:21:59.975Z,97739.17
2018-09-27T10:24:27.166Z,97739.31
2018-09-27T10:26:54.377Z,97738.02
2018-09-27T10:29:21.639Z,97738.53
2018-09-27T10:31:48.928Z,97733.55
2018-09-27T10:34:16.177Z,97728.98
2018-09-27T10:36:43.363Z,97722.71
2018-09-27T10:39:12.013Z,97726.08
2018-09-27T10:41:39.276Z,97722.71
2018-09-27T10:44:06.628Z,97720.56
2018-09-27T10:46:33.873Z,97716.81
2018-09-27T10:49:01.113Z,97712.70
2018-09-27T10:51:28.556Z,97709.20
2018-09-27T10:53:55.595Z,97705.52
2018-09-27T10:56:22.868Z,97702.34
2018-09-27T10:58:50.106Z,97701.94
2018-09-27T11:01:17.261Z,97703.27
2018-09-27T11:03:44.516Z,97700.72
2018-09-27T11:06:11.777Z,97691.62
2018-09-27T11:08:39.055Z,97693.13
2018-09-27T11:11:06.511Z,97689.19
2018-09-27T11:13:33.613Z,97684.86
2018-09-27T11:16:00.919Z,97687.51
2018-09-27T11:18:28.137Z,97675.96
2018-09-27T11:20:55.385Z,97671.37
2018-09-27T11:23:22.605Z,97670.34
2018-09-27T11:25:49.783Z,97665.23
2018-09-27T11:28:17.051Z,97664.29
2018-09-27T11:30:44.347Z,97663.12
2018-09-27T11:33:11.614Z,97657.19
2018-09-27T11:35:38.863Z,97652.94
2018-09-27T11:38:06.026Z,97655.47
2018-09-27T11:40:33.265Z,97637.72
2018-09-27T11:43:00.507Z,97639.86
2018-09-27T11:45:27.779Z,97635.97
2018-09-27T11:47:54.990Z,97636.48
2018-09-27T11:50:22.318Z,97629.69
2018-09-27T11:52:49.464Z,97622.33
2018-09-27T11:55:16.734Z,97617.48
2018-09-27T11:57:44.024Z,97619.90
2018-09-27T12:00:11.318Z,97613.20
2018-09-27T12:02:38.606Z,97609.73
2018-09-27T12:05:05.830Z,97611.00
2018-09-27T12:07:33.176Z,97602.30
2018-09-27T12:10:00.434Z,97599.77
2018-09-27T12:12:27.651Z,97597.00
2018-09-27T12:14:55.345Z,97592.03
2018-09-27T12:17:22.517Z,97586.64
2018-09-27T12:19:49.744Z,97581.37
2018-09-27T12:22:17.005Z,97581.65
2018-09-27T12:24:44.287Z,97585.16
2018-09-27T12:27:11.570Z,97572.67
2018-09-27T12:29:38.761Z,97571.51
2018-09-27T12:32:06.020Z,97549.59
2018-09-27T12:34:33.252Z,97561.22
2018-09-27T12:37:00.458Z,97554.89
2018-09-27T12:39:27.725Z,97547.63
2018-09-27T12:41:55.067Z,97543.31
2018-09-27T12:44:22.222Z,97538.79
2018-09-27T12:46:49.562Z,97542.86
2018-09-27T12:49:16.753Z,97538.28
2018-09-27T12:51:44.014Z,97538.89
2018-09-27T12:54:11.304Z,97534.44
2018-09-27T12:56:38.541Z,97525.97
2018-09-27T12:59:06.005Z,97522.01
2018-09-27T13:01:33.299Z,97511.17
2018-09-27T13:04:00.455Z,97504.98
2018-09-27T13:06:27.719Z,97500.82
2018-09-27T13:08:54.935Z,97498.83
2018-09-27T13:11:22.208Z,97486.81
2018-09-27T13:13:49.439Z,97482.24
2018-09-27T13:16:16.721Z,97484.17
2018-09-27T13:18:43.982Z,97482.89
2018-09-27T13:21:11.328Z,97478.87
2018-09-27T13:23:38.547Z,97478.03
2018-09-27T13:26:06.230Z,97477.44
2018-09-27T13:28:33.431Z,97470.98
2018-09-27T13:31:00.739Z,97463.09
2018-09-27T13:33:27.959Z,97458.89
2018-09-27T13:35:55.175Z,97466.66
2018-09-27T13:38:22.375Z,97452.42
2018-09-27T13:40:49.589Z,97457.01
2018-09-27T13:43:16.805Z,97454.70
2018-09-27T13:45:44.084Z,97450.80
2018-09-27T13:48:11.300Z,97454.06
2018-09-27T13:50:38.553Z,97450.15
2018-09-27T13:53:07.024Z,97437.47
2018-09-27T13:55:34.321Z,97439.73
2018-09-27T13:58:01.497Z,97432.73
2018-09-27T14:00:28.758Z,97433.39
2018-09-27T14:02:55.979Z,97429.98
2018-09-27T14:05:23.240Z,97424.80
2018-09-27T14:07:50.448Z,97429.45
2018-09-27T14:10:17.722Z,97425.42
2018-09-27T14:12:45.018Z,97421.38
2018-09-27T14:15:12.218Z,97423.73
2018-09-27T14:17:39.507Z,97418.46
2018-09-27T14:20:07.534Z,97420.61
2018-09-27T14:22:34.765Z,97408.58
2018-09-27T14:25:02.028Z,97407.23
2018-09-27T14:27:29.244Z,97405.42
2018-09-27T14:29:56.451Z,97403.15
2018-09-27T14:32:23.708Z,97402.64
2018-09-27T14:34:50.924Z,97397.05
2018-09-27T14:37:18.187Z,97393.86
2018-09-27T14:39:45.457Z,97389.17
2018-09-27T14:42:12.681Z,97386.41
2018-09-27T14:44:39.914Z,97384.30
2018-09-27T14:47:07.164Z,97380.45
2018-09-27T14:49:34.404Z,97382.95
2018-09-27T14:52:01.624Z,97380.26
2018-09-27T14:54:28.914Z,97375.89
2018-09-27T14:56:56.140Z,97378.19
2018-09-27T14:59:23.351Z,97369.86
2018-09-27T15:01:50.633Z,97372.44
2018-09-27T15:04:17.883Z,97376.33
2018-09-27T15:06:45.117Z,97368.52
2018-09-27T15:09:12.536Z,97369.08
2018-09-27T15:11:39.742Z,97369.17
2018-09-27T15:14:07.031Z,97360.67
2018-09-27T15:16:34.522Z,97353.84
2018-09-27T15:19:01.729Z,97352.05
2018-09-27T15:21:29.283Z,97351.56
2018-09-27T15:23:56.545Z,97340.92
2018-09-27T15:26:23.763Z,97342.17
2018-09-27T15:28:51.014Z,97340.35
2018-09-27T15:31:18.258Z,97334.11
2018-09-27T15:33:45.503Z,97328.42
2018-09-27T15:36:12.755Z,97331.66
2018-09-27T15:38:40.007Z,97329.40
2018-09-27T15:41:07.211Z,97327.95
2018-09-27T15:43:34.466Z,97313.61
2018-09-27T15:46:01.671Z,97320.12
2018-09-27T15:48:28.934Z,97316.86
2018-09-27T15:50:56.162Z,97314.10
2018-09-27T15:53:23.407Z,97308.36
2018-09-27T15:55:50.566Z,97313.36
2018-09-27T15:58:17.826Z,97304.23
2018-09-27T16:00:45.054Z,97304.34
2018-09-27T16:03:12.336Z,97299.56
2018-09-27T16:05:39.582Z,97292.59
2018-09-27T16:08:07.319Z,97281.66
2018-09-27T16:10:34.569Z,97290.77
2018-09-27T16:13:02.089Z,97280.25
2018-09-27T16:15:29.341Z,97285.33
2018-09-27T16:17:56.502Z,97283.61
2018-09-27T16:20:23.726Z,97286.28
2018-09-27T16:22:50.947Z,97284.58
2018-09-27T16:25:18.175Z,97280.78
2018-09-27T16:27:45.424Z,97279.60
2018-09-27T16:30:12.674Z,97281.53
2018-09-27T16:32:39.908Z,97278.77
2018-09-27T16:35:07.188Z,97278.81
2018-09-27T16:37:34.480Z,97279.79
2018-09-27T16:40:01.698Z,97274.58
2018-09-27T16:42:28.953Z,97279.03
2018-09-27T16:44:56.220Z,97269.75
2018-09-27T16:47:23.457Z,97273.02
2018-09-27T16:49:50.646Z,97279.02
2018-09-27T16:52:18.106Z,97281.55
2018-09-27T16:54:45.326Z,97272.46
2018-09-27T16:57:12.615Z,97276.52
2018-09-27T16:59:39.962Z,97273.84
2018-09-27T17:02:07.257Z,97273.81
2018-09-27T17:04:34.446Z,97272.55
2018-09-27T17:07:01.711Z,97275.91
2018-09-27T17:09:28.988Z,97275.62
2018-09-27T17:11:56.246Z,97275.95
2018-09-27T17:14:23.498Z,97277.18
2018-09-27T17:16:50.734Z,97271.88
2018-09-27T17:19:17.965Z,97277.33
2018-09-27T17:21:45.217Z,97275.71
2018-09-27T17:24:12.498Z,97273.20
2018-09-27T17:26:39.774Z,97278.19
2018-09-27T17:29:07.009Z,97274.25
2018-09-27T17:31:34.281Z,97267.28
2018-09-27T17:34:01.504Z,97267.63
2018-09-27T17:36:28.745Z,97272.86
2018-09-27T17:38:56.033Z,97274.76
2018-09-27T17:41:23.296Z,97274.77
2018-09-27T17:43:50.517Z,97279.33
2018-09-27T17:46:17.736Z,97285.78
2018-09-27T17:48:44.891Z,97284.45
2018-09-27T17:51:12.089Z,97283.62
2018-09-27T17:53:39.344Z,97287.35
2018-09-27T17:56:06.575Z,97288.57
2018-09-27T17:58:33.888Z,97287.81
2018-09-27T18:01:01.109Z,97289.41
2018-09-27T18:03:28.319Z,97290.09
2018-09-27T18:05:55.619Z,97291.89
2018-09-27T18:08:22.903Z,97289.23
2018-09-27T18:10:50.128Z,97278.63
2018-09-27T18:13:17.397Z,97289.08
2018-09-27T18:15:44.579Z,97287.30
2018-09-27T18:18:11.843Z,97293.73
2018-09-27T18:20:39.025Z,97296.92
2018-09-27T18:23:06.297Z,97285.91
2018-09-27T18:25:33.537Z,97294.13
2018-09-27T18:28:00.756Z,97288.91
2018-09-27T18:30:27.955Z,97294.25
2018-09-27T18:32:55.230Z,97288.08
2018-09-27T18:35:22.489Z,97290.89
2018-09-27T18:37:49.777Z,97288.87
2018-09-27T18:40:17.048Z,97288.63
2018-09-27T18:42:44.260Z,97291.73
2018-09-27T18:45:11.466Z,97288.86
2018-09-27T18:47:38.714Z,97286.01
2018-09-27T18:50:06.305Z,97289.63
2018-09-27T18:52:33.594Z,97291.91
2018-09-27T18:55:00.837Z,97258.20
2018-09-27T18:57:28.006Z,97288.23
2018-09-27T18:59:55.233Z,97281.05
2018-09-27T19:02:22.534Z,97282.97
2018-09-27T19:04:49.766Z,97277.83
2018-09-27T19:07:16.991Z,97278.56
2018-09-27T19:09:44.289Z,97277.97
2018-09-27T19:12:11.614Z,97273.55
2018-09-27T19:14:38.878Z,97277.63
2018-09-27T19:17:06.269Z,97272.84
2018-09-27T19:19:33.382Z,97272.01
2018-09-27T19:22:00.565Z,97277.21
2018-09-27T19:24:27.848Z,97274.45
2018-09-27T19:26:55.124Z,97278.66
2018-09-27T19:29:22.465Z,97277.80
2018-09-27T19:31:49.634Z,97270.69
2018-09-27T19:34:16.880Z,97266.38
2018-09-27T19:36:44.122Z,97265.78
2018-09-27T19:39:11.387Z,97266.23
2018-09-27T19:41:39.050Z,97267.45
2018-09-27T19:44:06.283Z,97269.61
2018-09-27T19:46:33.584Z,97269.72
2018-09-27T19:49:00.851Z,97231.28
2018-09-27T19:51:28.116Z,97259.03
2018-09-27T19:53:55.333Z,97263.33
2018-09-27T19:56:22.550Z,97258.30
2018-09-27T19:58:49.828Z,97257.06
2018-09-27T20:01:17.066Z,97252.21
2018-09-27T20:03:44.301Z,97259.27
2018-09-27T20:06:11.617Z,97255.33
2018-09-27T20:08:38.970Z,97255.78
2018-09-27T20:11:06.307Z,97256.48
2018-09-27T20:13:33.542Z,97255.80
2018-09-27T20:16:00.888Z,97262.86
2018-09-27T20:18:28.018Z,97252.88
2018-09-27T20:20:55.211Z,97250.33
2018-09-27T20:23:22.458Z,97258.56
2018-09-27T20:25:49.721Z,97250.89
2018-09-27T20:28:17.018Z,97255.03
2018-09-27T20:30:44.268Z,97256.22
2018-09-27T20:33:11.458Z,97251.17
2018-09-27T20:35:38.709Z,97255.34
2018-09-27T20:38:06.271Z,97250.75
2018-09-27T20:40:33.526Z,97254.81
2018-09-27T20:43:00.940Z,97256.78
2018-09-27T20:45:28.140Z,97262.63
2018-09-27T20:47:55.363Z,97256.16
2018-09-27T20:50:22.582Z,97258.33
2018-09-27T20:52:49.846Z,97255.50
2018-09-27T20:55:17.147Z,97249.24
2018-09-27T20:57:44.421Z,97252.39
2018-09-27T21:02:39.420Z,97256.28
2018-09-27T21:05:06.888Z,97261.62
2018-09-27T21:07:34.110Z,97251.69
2018-09-27T21:10:01.466Z,97256.30
2018-09-27T21:12:28.684Z,97257.48
2018-09-27T21:14:55.902Z,97247.48
2018-09-27T21:17:23.144Z,97246.27
2018-09-27T21:19:50.574Z,97242.98
2018-09-27T21:22:17.991Z,97244.17
2018-09-27T21:24:45.181Z,97241.45
2018-09-27T21:27:12.357Z,97241.36
2018-09-27T21:29:39.638Z,97239.29
2018-09-27T21:32:06.862Z,97237.98
2018-09-27T21:34:34.213Z,97240.29
2018-09-27T21:37:01.421Z,97240.61
2018-09-27T21:39:28.699Z,97237.03
2018-09-27T21:41:55.876Z,97229.66
2018-09-27T21:44:23.125Z,97235.36
2018-09-27T21:46:50.378Z,97231.84
2018-09-27T21:49:17.590Z,97230.39
2018-09-27T21:51:44.793Z,97229.58
2018-09-27T21:54:12.069Z,97230.16
2018-09-27T21:56:39.273Z,97228.17
2018-09-27T21:59:06.469Z,97226.64
2018-09-27T22:01:33.766Z,97218.25
2018-09-27T22:04:01.010Z,97224.06
2018-09-27T22:06:28.254Z,97218.50
2018-09-27T22:08:55.834Z,97216.69
2018-09-27T22:11:23.104Z,97211.45
2018-09-27T22:13:50.344Z,97217.45
2018-09-27T22:16:17.610Z,97216.69
2018-09-27T22:18:44.821Z,97217.76
2018-09-27T22:21:12.041Z,97214.56
2018-09-27T22:23:39.310Z,97208.23
2018-09-27T22:26:06.522Z,97207.20
2018-09-27T22:28:33.813Z,97205.73
2018-09-27T22:31:01.089Z,97199.87
2018-09-27T22:33:28.436Z,97200.91
2018-09-27T22:35:55.912Z,97206.14
2018-09-27T22:38:23.235Z,97199.84
2018-09-27T22:40:50.470Z,97194.75
2018-09-27T22:43:17.744Z,97195.58
2018-09-27T22:45:44.955Z,97192.93
2018-09-27T22:48:12.244Z,97184.16
2018-09-27T22:50:39.445Z,97194.05
2018-09-27T22:53:06.715Z,97187.56
2018-09-27T22:55:33.961Z,97189.11
2018-09-27T22:58:01.231Z,97189.13
2018-09-27T23:00:28.455Z,97197.59
2018-09-27T23:02:55.681Z,97191.07
2018-09-27T23:05:22.921Z,97189.56
2018-09-27T23:07:50.122Z,97188.09
2018-09-27T23:10:17.361Z,97183.67
2018-09-27T23:12:44.563Z,97184.69
2018-09-27T23:15:11.763Z,97181.91
2018-09-27T23:17:38.930Z,97160.24
2018-09-27T23:20:07.532Z,97182.08
2018-09-27T23:22:34.768Z,97179.82
2018-09-27T23:25:02.057Z,97181.14
2018-09-27T23:27:29.283Z,97179.19
2018-09-27T23:29:56.516Z,97174.08
2018-09-27T23:32:23.792Z,97173.31
2018-09-27T23:34:51.043Z,97176.19
2018-09-27T23:37:18.233Z,97173.31
2018-09-27T23:39:45.525Z,97171.09
2018-09-27T23:42:12.785Z,97166.78
2018-09-27T23:44:40.030Z,97167.55
2018-09-27T23:47:07.238Z,97168.85
2018-09-27T23:49:34.478Z,97164.58
2018-09-27T23:52:01.704Z,97165.31
2018-09-27T23:54:28.872Z,97164.38
2018-09-27T23:56:56.048Z,97166.34
2018-09-27T23:59:23.291Z,97168.39
